Time;durP1;ratioP1;P1;durP2;ratioP2;P2;SDS_P1;SDS_P2;PMS_P1;PMS_P2;Temp;Humidity;BMP_temperature;BMP_pressure;BME280_temperature;BME280_humidity;BME280_pressure;Samples;Min_cycle;Max_cycle;Signal;HPM_P1;HPM_P2
2021/08/06 00:00:59;;;;;;;21.60;18.98;;;;;;;16.57;100.00;100186.53;3587148;40;20379;-63
2021/08/06 00:03:26;;;;;;;21.45;18.67;;;;;;;16.51;100.00;100179.16;3587356;40;20032;-63
2021/08/06 00:05:54;;;;;;;20.23;18.00;;;;;;;16.52;100.00;100183.53;3587298;40;20040;-63
2021/08/06 00:08:20;;;;;;;19.13;15.77;;;;;;;16.52;100.00;100175.38;3586935;40;20043;-63
2021/08/06 00:10:47;;;;;;;16.58;14.27;;;;;;;16.62;100.00;100178.63;3652495;22;20067;-63
2021/08/06 00:13:36;;;;;;;17.83;14.68;;;;;;;16.60;100.00;100175.28;3628201;22;20072;-63
2021/08/06 00:16:05;;;;;;;15.75;13.82;;;;;;;16.64;100.00;100173.88;3574181;40;20037;-63
2021/08/06 00:18:31;;;;;;;14.23;12.73;;;;;;;16.58;100.00;100177.34;3577295;40;20394;-63
2021/08/06 00:20:58;;;;;;;12.85;11.43;;;;;;;16.58;100.00;100171.94;3577678;40;20345;-63
2021/08/06 00:23:24;;;;;;;14.00;11.05;;;;;;;16.52;100.00;100164.53;3576396;40;20040;-62
2021/08/06 00:25:51;;;;;;;10.93;9.43;;;;;;;16.55;100.00;100158.69;3575995;40;20037;-63
2021/08/06 00:28:17;;;;;;;9.32;8.30;;;;;;;16.60;100.00;100154.38;3578510;40;20347;-63
2021/08/06 00:30:44;;;;;;;9.07;8.18;;;;;;;16.67;100.00;100146.31;3578818;40;20059;-63
2021/08/06 00:33:11;;;;;;;8.07;7.30;;;;;;;16.63;100.00;100151.28;3578793;40;20298;-64
2021/08/06 00:35:38;;;;;;;8.32;7.18;;;;;;;16.59;100.00;100158.16;3578947;40;20049;-63
2021/08/06 00:38:04;;;;;;;7.53;6.32;;;;;;;16.57;100.00;100148.50;3577059;40;20067;-63
2021/08/06 00:40:31;;;;;;;8.73;7.13;;;;;;;16.56;100.00;100146.81;3573388;40;20113;-63
2021/08/06 00:42:57;;;;;;;7.18;6.28;;;;;;;16.51;100.00;100146.56;3578939;40;20061;-63
2021/08/06 00:45:24;;;;;;;8.18;6.30;;;;;;;16.64;100.00;100144.81;3578521;40;20041;-63
2021/08/06 00:47:51;;;;;;;6.10;5.50;;;;;;;16.68;100.00;100141.69;3579034;40;20039;-63
2021/08/06 00:50:18;;;;;;;7.55;5.80;;;;;;;16.82;100.00;100138.09;3578477;40;20392;-64
2021/08/06 00:52:45;;;;;;;8.38;6.03;;;;;;;16.90;100.00;100134.41;3578884;40;20067;-63
2021/08/06 00:55:12;;;;;;;6.13;5.20;;;;;;;16.84;100.00;100135.16;3578502;40;20041;-64
2021/08/06 00:57:39;;;;;;;6.88;5.60;;;;;;;16.82;100.00;100125.31;3576450;40;20045;-63
2021/08/06 01:00:07;;;;;;;6.03;4.57;;;;;;;16.81;100.00;100120.94;3578048;40;20037;-63
2021/08/06 01:02:43;;;;;;;6.60;5.00;;;;;;;16.78;100.00;100115.91;3578798;40;20295;-62
2021/08/06 01:05:12;;;;;;;6.30;5.50;;;;;;;16.76;100.00;100120.69;3578660;40;20032;-63
2021/08/06 01:07:47;;;;;;;6.65;5.18;;;;;;;16.78;100.00;100115.03;3578408;40;20026;-64
2021/08/06 01:10:14;;;;;;;7.55;5.47;;;;;;;16.79;100.00;100119.44;3656533;22;20071;-63
2021/08/06 01:12:45;;;;;;;7.60;5.63;;;;;;;16.70;100.00;100117.91;3588638;40;20395;-63
2021/08/06 01:15:13;;;;;;;5.88;5.28;;;;;;;16.75;100.00;100120.88;3588925;40;20117;-64
2021/08/06 01:17:44;;;;;;;6.55;4.70;;;;;;;16.77;100.00;100118.81;3588440;40;20376;-63
2021/08/06 01:20:14;;;;;;;6.05;5.20;;;;;;;16.73;100.00;100110.19;3588172;40;20033;-63
2021/08/06 01:22:47;;;;;;;5.32;4.75;;;;;;;16.71;100.00;100104.13;3588610;40;20047;-63
2021/08/06 01:25:31;;;;;;;7.43;5.50;;;;;;;16.75;100.00;100105.41;3582931;40;20029;-63
2021/08/06 01:27:58;;;;;;;6.07;5.22;;;;;;;16.76;100.00;100106.25;3588344;40;20388;-64
2021/08/06 01:30:25;;;;;;;8.15;5.10;;;;;;;16.77;100.00;100097.91;3587918;40;20396;-63
2021/08/06 01:32:54;;;;;;;5.93;4.95;;;;;;;16.83;100.00;100107.16;3587974;40;20033;-63
2021/08/06 01:35:21;;;;;;;6.43;5.18;;;;;;;16.86;100.00;100106.75;3588786;40;20060;-64
2021/08/06 01:37:47;;;;;;;5.88;5.22;;;;;;;16.94;100.00;100103.94;3588932;40;20029;-64
2021/08/06 01:40:14;;;;;;;4.95;4.35;;;;;;;16.94;100.00;100101.19;3588194;40;20063;-63
2021/08/06 01:42:47;;;;;;;6.65;4.70;;;;;;;16.95;100.00;100085.75;3589018;40;20036;-64
2021/08/06 01:45:20;;;;;;;6.15;4.65;;;;;;;16.87;100.00;100083.13;3588172;40;20037;-64
2021/08/06 01:47:49;;;;;;;6.03;4.75;;;;;;;16.81;100.00;100085.63;3588349;40;20037;-63
2021/08/06 01:50:23;;;;;;;6.80;4.57;;;;;;;16.88;100.00;100087.56;3587744;40;20077;-63
2021/08/06 01:52:59;;;;;;;6.25;4.72;;;;;;;16.84;100.00;100083.53;3588430;40;20089;-63
2021/08/06 01:55:27;;;;;;;5.70;4.95;;;;;;;16.84;100.00;100086.25;3588820;40;20361;-64
2021/08/06 01:57:58;;;;;;;5.93;5.13;;;;;;;16.83;100.00;100082.69;3588566;40;20037;-64
2021/08/06 02:00:25;;;;;;;5.25;4.50;;;;;;;16.94;100.00;100081.34;3587636;40;20293;-64
2021/08/06 02:02:52;;;;;;;5.35;4.60;;;;;;;16.88;100.00;100082.97;3588425;40;20036;-64
2021/08/06 02:05:21;;;;;;;6.57;4.43;;;;;;;16.86;100.00;100084.16;3588136;40;20048;-64
2021/08/06 02:10:19;;;;;;;6.95;4.40;;;;;;;17.07;100.00;100073.28;3623225;22;20051;-63
2021/08/06 02:12:46;;;;;;;5.70;4.13;;;;;;;17.07;100.00;100069.75;3598581;39;20143;-64
2021/08/06 02:15:15;;;;;;;5.50;4.78;;;;;;;17.06;100.00;100070.78;3598389;39;20032;-63
2021/08/06 02:20:56;;;;;;;6.57;4.90;;;;;;;17.06;100.00;100063.44;3581793;22;20075;-63
2021/08/06 02:23:25;;;;;;;6.47;4.90;;;;;;;17.04;100.00;100065.53;3585494;40;20183;-64
2021/08/06 02:25:53;;;;;;;7.32;4.50;;;;;;;17.01;100.00;100060.50;3585419;40;20052;-64
2021/08/06 02:28:20;;;;;;;8.25;5.00;;;;;;;17.00;100.00;100053.38;3587821;40;20064;-64
2021/08/06 02:30:50;;;;;;;7.10;4.45;;;;;;;17.00;100.00;100056.09;3588237;40;20052;-64
2021/08/06 02:33:17;;;;;;;6.30;4.70;;;;;;;16.99;100.00;100054.44;3588442;40;20032;-64
2021/08/06 02:35:44;;;;;;;6.28;4.55;;;;;;;17.01;100.00;100049.63;3588462;40;20060;-64
2021/08/06 02:38:10;;;;;;;5.90;4.70;;;;;;;17.02;100.00;100051.31;3587502;40;20078;-64
2021/08/06 02:40:37;;;;;;;9.27;5.28;;;;;;;16.99;100.00;100041.66;3587866;40;20032;-64
2021/08/06 02:43:05;;;;;;;5.95;4.50;;;;;;;17.00;100.00;100039.78;3588005;40;20284;-65
2021/08/06 02:45:32;;;;;;;5.93;4.63;;;;;;;16.93;100.00;100042.47;3587962;40;20028;-64
2021/08/06 02:48:00;;;;;;;5.72;4.30;;;;;;;16.93;100.00;100037.03;3587866;40;20037;-65
2021/08/06 02:50:27;;;;;;;5.20;3.97;;;;;;;16.99;100.00;100046.28;3587712;40;20414;-64
2021/08/06 02:52:53;;;;;;;5.45;4.05;;;;;;;17.06;100.00;100030.81;3587942;40;20397;-65
2021/08/06 02:55:19;;;;;;;5.32;3.90;;;;;;;17.08;100.00;100036.09;3588108;40;20057;-64
2021/08/06 02:57:46;;;;;;;7.85;4.50;;;;;;;17.03;100.00;100036.66;3588200;40;20039;-63
2021/08/06 03:00:13;;;;;;;6.90;4.40;;;;;;;17.05;100.00;100028.31;3587812;40;20039;-65
2021/08/06 03:02:40;;;;;;;4.47;4.07;;;;;;;17.02;100.00;100035.00;3587903;40;20039;-64
2021/08/06 03:05:09;;;;;;;5.75;3.95;;;;;;;17.04;100.00;100032.09;3587975;40;20036;-64
2021/08/06 03:07:35;;;;;;;6.47;4.80;;;;;;;17.11;100.00;100030.25;3588044;40;20278;-64
2021/08/06 03:10:03;;;;;;;6.65;3.92;;;;;;;17.10;100.00;100032.09;3588115;40;20292;-64
2021/08/06 03:12:30;;;;;;;5.27;3.90;;;;;;;17.15;100.00;100026.06;3588360;40;20047;-64
2021/08/06 03:14:56;;;;;;;8.15;3.97;;;;;;;17.07;100.00;100024.34;3587845;40;20266;-63
2021/08/06 03:17:23;;;;;;;6.35;4.40;;;;;;;17.06;100.00;100021.84;3588202;40;20044;-65
2021/08/06 03:19:50;;;;;;;6.18;3.92;;;;;;;17.10;100.00;100015.78;3587463;40;20323;-64
2021/08/06 03:22:18;;;;;;;5.53;4.50;;;;;;;17.11;100.00;100012.03;3587226;40;20040;-65
2021/08/06 03:24:44;;;;;;;4.88;4.05;;;;;;;17.07;100.00;100015.38;3587675;40;20356;-63
2021/08/06 03:27:11;;;;;;;5.47;4.20;;;;;;;17.09;100.00;100022.28;3587809;40;20036;-64
2021/08/06 03:29:37;;;;;;;9.00;4.50;;;;;;;17.07;100.00;100013.47;3587571;40;20391;-65
2021/08/06 03:32:04;;;;;;;5.18;4.05;;;;;;;17.08;100.00;100017.88;3587336;40;20117;-64
2021/08/06 03:34:31;;;;;;;5.47;4.20;;;;;;;17.04;100.00;100022.03;3587895;40;20066;-64
2021/08/06 03:36:57;;;;;;;7.78;4.47;;;;;;;17.05;100.00;100018.28;3587744;40;20366;-64
2021/08/06 03:39:25;;;;;;;6.20;4.13;;;;;;;17.09;100.00;100022.28;3587546;40;20040;-65
2021/08/06 03:41:51;;;;;;;5.78;4.28;;;;;;;17.14;100.00;100017.09;3587691;40;20044;-64
2021/08/06 03:44:18;;;;;;;8.50;4.05;;;;;;;17.14;100.00;100016.25;3587450;40;20045;-64
2021/08/06 03:46:44;;;;;;;5.15;4.00;;;;;;;17.15;100.00;100010.63;3587742;40;20314;-63
2021/08/06 03:49:11;;;;;;;7.55;4.10;;;;;;;17.13;100.00;100015.38;3587485;40;20045;-64
2021/08/06 03:51:37;;;;;;;4.95;3.83;;;;;;;17.07;100.00;100008.03;3621801;22;20054;-63
2021/08/06 03:54:04;;;;;;;5.07;4.03;;;;;;;17.05;100.00;100004.69;3616122;39;20033;-64
2021/08/06 03:56:31;;;;;;;5.38;3.70;;;;;;;17.11;100.00;100009.31;3616908;39;20072;-64
2021/08/06 03:58:58;;;;;;;5.43;4.07;;;;;;;17.09;100.00;100005.97;3619727;39;20023;-63
2021/08/06 04:01:24;;;;;;;6.55;4.10;;;;;;;17.10;100.00;99998.66;3619630;39;20037;-63
2021/08/06 04:03:51;;;;;;;7.32;4.07;;;;;;;17.11;100.00;100009.31;3619339;39;20406;-64
2021/08/06 04:06:17;;;;;;;5.82;3.50;;;;;;;17.16;100.00;100011.44;3619562;39;20053;-63
2021/08/06 04:08:44;;;;;;;5.03;3.65;;;;;;;17.10;100.00;100010.34;3619280;39;20030;-63
2021/08/06 04:11:10;;;;;;;4.88;3.47;;;;;;;17.13;100.00;100023.53;3619572;39;20031;-64
2021/08/06 04:13:38;;;;;;;6.05;3.60;;;;;;;17.14;100.00;100022.53;3619546;39;20046;-64
2021/08/06 04:16:05;;;;;;;5.93;3.20;;;;;;;17.13;100.00;100020.84;3619045;39;20045;-63
2021/08/06 04:18:31;;;;;;;4.97;4.05;;;;;;;17.12;100.00;100023.75;3619416;39;20043;-64
2021/08/06 04:20:59;;;;;;;5.95;3.92;;;;;;;17.01;100.00;100016.16;3619383;39;20044;-64
2021/08/06 04:23:26;;;;;;;4.95;3.88;;;;;;;16.94;100.00;100018.84;3619741;39;20038;-64
2021/08/06 04:25:52;;;;;;;4.60;3.95;;;;;;;16.86;100.00;100024.38;3619329;39;20027;-64
2021/08/06 04:28:19;;;;;;;7.20;4.45;;;;;;;16.81;100.00;100023.13;3619210;39;20402;-64
2021/08/06 04:30:47;;;;;;;4.88;4.13;;;;;;;16.81;100.00;100027.69;3619198;39;20042;-64
2021/08/06 04:33:13;;;;;;;6.20;4.68;;;;;;;16.80;100.00;100021.41;3619544;39;20051;-64
2021/08/06 04:35:40;;;;;;;5.53;3.85;;;;;;;16.77;100.00;100029.16;3619273;39;20301;-64
2021/08/06 04:38:06;;;;;;;5.47;4.18;;;;;;;16.75;100.00;100023.88;3618849;39;20041;-64
2021/08/06 04:40:33;;;;;;;4.45;3.67;;;;;;;16.71;100.00;100016.31;3619580;39;20051;-64
2021/08/06 04:42:59;;;;;;;5.05;4.10;;;;;;;16.68;100.00;100020.28;3619417;39;20038;-64
2021/08/06 04:45:26;;;;;;;4.88;4.18;;;;;;;16.68;100.00;100030.31;3619134;39;20046;-63
2021/08/06 04:47:55;;;;;;;5.15;4.30;;;;;;;16.65;100.00;100028.81;3619486;39;20035;-64
2021/08/06 04:50:24;;;;;;;7.65;4.35;;;;;;;16.64;100.00;100027.16;3618968;39;20136;-65
2021/08/06 04:52:50;;;;;;;9.27;4.43;;;;;;;16.64;100.00;100029.88;3619304;39;20043;-64
2021/08/06 04:55:16;;;;;;;5.63;4.30;;;;;;;16.64;100.00;100027.16;3619251;39;20039;-65
2021/08/06 04:57:44;;;;;;;6.00;4.47;;;;;;;16.69;100.00;100024.66;3617140;39;20305;-64
2021/08/06 05:00:12;;;;;;;5.63;4.28;;;;;;;16.66;100.00;100030.50;3618706;39;20097;-64
2021/08/06 05:02:38;;;;;;;6.03;4.65;;;;;;;16.66;100.00;100032.38;3619399;39;20031;-64
2021/08/06 05:05:07;;;;;;;5.65;4.75;;;;;;;16.61;100.00;100027.53;3619218;39;20035;-63
2021/08/06 05:07:33;;;;;;;6.77;5.47;;;;;;;16.59;100.00;100029.59;3619223;39;20041;-63
2021/08/06 05:10:00;;;;;;;6.78;4.43;;;;;;;16.57;100.00;100031.69;3618854;39;20072;-63
2021/08/06 05:12:26;;;;;;;6.13;4.55;;;;;;;16.61;100.00;100033.81;3618896;39;20043;-63
2021/08/06 05:14:53;;;;;;;6.80;5.50;;;;;;;16.65;100.00;100034.25;3667411;22;20390;-64
2021/08/06 05:17:19;;;;;;;7.35;5.38;;;;;;;16.62;100.00;100040.06;3608404;39;20043;-63
2021/08/06 05:19:46;;;;;;;7.07;5.57;;;;;;;16.68;100.00;100039.31;3608678;39;20043;-64
2021/08/06 05:22:13;;;;;;;8.45;5.22;;;;;;;16.81;100.00;100033.97;3608529;39;20031;-64
2021/08/06 05:24:40;;;;;;;7.20;5.40;;;;;;;16.82;100.00;100035.63;3603169;39;20038;-63
2021/08/06 05:27:07;;;;;;;6.25;5.20;;;;;;;16.73;100.00;100036.84;3608940;39;20068;-65
2021/08/06 05:29:33;;;;;;;7.03;5.38;;;;;;;16.73;100.00;100036.84;3608787;39;20075;-64
2021/08/06 05:32:00;;;;;;;8.38;5.63;;;;;;;16.75;100.00;100037.47;3608730;39;20419;-63
2021/08/06 05:34:26;;;;;;;7.10;5.22;;;;;;;16.78;100.00;100034.38;3608525;39;20055;-64
2021/08/06 05:36:53;;;;;;;6.82;5.40;;;;;;;16.84;100.00;100035.44;3608823;39;20071;-64
2021/08/06 05:39:21;;;;;;;6.47;5.30;;;;;;;16.95;100.00;100039.53;3608868;39;20031;-64
2021/08/06 05:41:47;;;;;;;9.00;5.97;;;;;;;16.93;100.00;100033.44;3608898;39;20063;-63
2021/08/06 05:44:14;;;;;;;7.88;6.00;;;;;;;17.09;100.00;100035.88;3608510;39;20305;-63
2021/08/06 05:46:40;;;;;;;8.23;5.40;;;;;;;17.08;100.00;100039.63;3608821;39;20024;-63
2021/08/06 05:49:06;;;;;;;7.70;5.28;;;;;;;17.02;100.00;100035.00;3608803;39;20116;-63
2021/08/06 05:51:33;;;;;;;5.55;4.90;;;;;;;17.12;100.00;100035.47;3608588;39;20308;-64
2021/08/06 05:54:01;;;;;;;7.18;5.75;;;;;;;17.12;100.00;100035.47;3608516;39;20394;-64
2021/08/06 05:56:29;;;;;;;6.73;5.90;;;;;;;17.05;100.00;100034.59;3608516;39;20063;-63
2021/08/06 05:58:55;;;;;;;6.80;5.43;;;;;;;17.00;100.00;100039.78;3601604;39;20253;-63
2021/08/06 06:01:22;;;;;;;8.80;5.25;;;;;;;17.04;100.00;100041.06;3608700;39;20054;-64
2021/08/06 06:03:48;;;;;;;7.75;5.35;;;;;;;17.00;100.00;100042.50;3608784;39;20362;-64
2021/08/06 06:06:15;;;;;;;7.45;5.38;;;;;;;17.00;100.00;100047.94;3608558;39;20052;-63
2021/08/06 06:08:41;;;;;;;8.43;4.97;;;;;;;17.12;100.00;100038.22;3608388;39;20030;-64
2021/08/06 06:11:08;;;;;;;5.90;5.00;;;;;;;17.15;100.00;100042.38;3608865;39;20047;-63
2021/08/06 06:13:36;;;;;;;8.50;5.97;;;;;;;17.21;100.00;100048.91;3608381;39;20038;-63
2021/08/06 06:16:02;;;;;;;7.07;5.27;;;;;;;17.12;100.00;100046.38;3602945;39;20141;-64
2021/08/06 06:18:29;;;;;;;7.70;5.45;;;;;;;17.22;100.00;100045.16;3598039;40;20046;-63
2021/08/06 06:20:56;;;;;;;7.72;6.63;;;;;;;17.30;100.00;100048.56;3598290;39;20036;-64
2021/08/06 06:23:23;;;;;;;7.75;5.93;;;;;;;17.28;100.00;100044.34;3595769;40;20020;-63
2021/08/06 06:25:50;;;;;;;5.90;5.30;;;;;;;17.32;100.00;100046.47;3594997;40;20298;-62
2021/08/06 06:28:16;;;;;;;6.68;5.50;;;;;;;17.30;100.00;100050.44;3597731;40;20040;-63
2021/08/06 06:30:44;;;;;;;7.20;4.80;;;;;;;17.27;100.00;100039.94;3598315;40;20033;-63
2021/08/06 06:33:10;;;;;;;5.65;5.03;;;;;;;17.39;100.00;100041.06;3598538;40;20044;-63
2021/08/06 06:35:37;;;;;;;6.18;4.70;;;;;;;17.30;100.00;100042.28;3598338;40;20400;-64
2021/08/06 06:38:04;;;;;;;5.22;4.70;;;;;;;17.30;100.00;100043.13;3597847;40;20068;-65
2021/08/06 06:40:31;;;;;;;5.40;4.13;;;;;;;17.47;100.00;100043.63;3598300;40;20043;-63
2021/08/06 06:42:57;;;;;;;5.38;4.18;;;;;;;17.63;100.00;100037.00;3597878;39;20036;-64
2021/08/06 06:45:24;;;;;;;4.43;3.78;;;;;;;17.77;100.00;100043.34;3598205;40;20042;-64
2021/08/06 06:50:22;;;;;;;4.82;3.80;;;;;;;17.84;100.00;100035.19;3602336;22;20048;-63
2021/08/06 06:52:49;;;;;;;4.60;3.53;;;;;;;17.83;100.00;100042.53;3598067;39;20049;-64
2021/08/06 06:55:15;;;;;;;4.13;3.33;;;;;;;18.03;100.00;100044.50;3598087;39;20069;-63
2021/08/06 06:57:43;;;;;;;4.90;3.55;;;;;;;18.14;100.00;100046.63;3597905;40;20044;-63
2021/08/06 07:00:11;;;;;;;4.20;3.42;;;;;;;18.25;100.00;100050.63;3597446;39;20075;-64
2021/08/06 07:02:37;;;;;;;4.43;3.95;;;;;;;18.30;100.00;100041.81;3598033;39;20040;-63
2021/08/06 07:05:04;;;;;;;4.28;3.33;;;;;;;18.24;100.00;100045.38;3598012;39;20134;-64
2021/08/06 07:10:54;;;;;;;4.90;3.50;;;;;;;18.31;100.00;100051.69;3639136;22;20051;-64
2021/08/06 07:13:20;;;;;;;4.90;4.40;;;;;;;18.20;100.00;100053.97;3608842;39;20058;-64
2021/08/06 07:15:47;;;;;;;6.55;4.53;;;;;;;18.09;100.00;100061.91;3607575;39;20302;-64
2021/08/06 07:18:14;;;;;;;4.75;4.05;;;;;;;18.18;100.00;100053.34;3608023;39;20032;-63
2021/08/06 07:20:40;;;;;;;8.82;4.70;;;;;;;18.31;100.00;100057.97;3608329;39;20049;-64
2021/08/06 07:23:07;;;;;;;6.97;4.82;;;;;;;18.44;100.00;100059.88;3606677;39;20306;-64
2021/08/06 07:25:34;;;;;;;5.50;4.00;;;;;;;18.45;100.00;100050.66;3604160;39;20040;-63
2021/08/06 07:28:01;;;;;;;4.82;3.83;;;;;;;18.52;100.00;100051.53;3607959;39;20046;-63
2021/08/06 07:30:28;;;;;;;5.60;4.35;;;;;;;18.80;100.00;100058.66;3608221;39;20264;-62
2021/08/06 07:32:54;;;;;;;5.72;4.13;;;;;;;19.10;100.00;100044.59;3609320;39;20450;-63
2021/08/06 07:35:22;;;;;;;5.97;3.72;;;;;;;19.33;100.00;100043.28;3609614;39;20120;-63
2021/08/06 07:37:48;;;;;;;4.72;4.10;;;;;;;19.13;100.00;100049.63;3609411;39;20036;-63
2021/08/06 07:40:17;;;;;;;4.53;4.13;;;;;;;19.23;100.00;100044.56;3609026;39;20044;-64
2021/08/06 07:42:43;;;;;;;4.78;4.15;;;;;;;19.20;100.00;100041.44;3609665;39;20075;-64
2021/08/06 07:45:13;;;;;;;4.45;3.90;;;;;;;19.29;100.00;100045.63;3609457;39;20297;-64
2021/08/06 07:47:39;;;;;;;4.55;4.10;;;;;;;19.32;100.00;100052.53;3609339;39;20038;-64
2021/08/06 07:50:07;;;;;;;5.78;4.45;;;;;;;18.78;100.00;100054.47;3609333;39;20034;-64
2021/08/06 07:52:33;;;;;;;5.57;4.60;;;;;;;18.44;100.00;100059.06;3659166;22;20117;-63
2021/08/06 07:55:00;;;;;;;6.97;4.50;;;;;;;18.45;100.00;100068.91;3609525;39;20287;-64
2021/08/06 07:57:27;;;;;;;5.53;4.93;;;;;;;18.51;100.00;100062.63;3607054;39;20066;-63
2021/08/06 07:59:53;;;;;;;7.57;4.65;;;;;;;18.58;100.00;100068.94;3609192;39;20058;-64
2021/08/06 08:02:21;;;;;;;5.35;4.53;;;;;;;18.85;100.00;100074.38;3609291;39;20317;-63
2021/08/06 08:04:48;;;;;;;5.10;4.60;;;;;;;19.07;100.00;100064.13;3609738;39;20307;-64
2021/08/06 08:07:14;;;;;;;5.90;4.38;;;;;;;19.16;100.00;100062.84;3609383;39;20308;-64
2021/08/06 08:09:41;;;;;;;8.27;4.88;;;;;;;19.30;100.00;100079.19;3609047;39;20038;-63
2021/08/06 08:12:07;;;;;;;6.35;4.40;;;;;;;19.20;100.00;100075.00;3609071;39;20119;-63
2021/08/06 08:14:34;;;;;;;7.45;4.60;;;;;;;19.19;100.00;100073.31;3609386;39;20042;-64
2021/08/06 08:17:00;;;;;;;5.40;4.32;;;;;;;19.18;100.00;100077.09;3609482;39;20039;-64
2021/08/06 08:19:28;;;;;;;6.35;4.43;;;;;;;19.39;100.00;100069.72;3609194;39;20028;-64
2021/08/06 08:21:55;;;;;;;6.15;4.53;;;;;;;19.04;100.00;100070.00;3609374;39;20407;-63
2021/08/06 08:24:21;;;;;;;6.85;4.78;;;;;;;18.96;100.00;100067.47;3602709;39;20052;-62
2021/08/06 08:26:48;;;;;;;7.28;4.90;;;;;;;19.29;100.00;100066.59;3609355;39;20048;-64
2021/08/06 08:29:14;;;;;;;8.18;5.10;;;;;;;19.65;100.00;100063.34;3609159;39;20121;-64
2021/08/06 08:31:41;;;;;;;6.40;4.57;;;;;;;19.23;100.00;100063.69;3602266;39;20059;-63
2021/08/06 08:34:08;;;;;;;9.10;4.85;;;;;;;18.89;100.00;100068.34;3608675;39;20044;-62
2021/08/06 08:36:35;;;;;;;11.63;5.20;;;;;;;19.08;100.00;100068.53;3609113;39;20036;-62
2021/08/06 08:39:03;;;;;;;6.72;5.00;;;;;;;19.26;100.00;100055.06;3608943;39;20043;-63
2021/08/06 08:41:29;;;;;;;7.18;4.80;;;;;;;19.75;100.00;100061.00;3608846;39;20064;-64
2021/08/06 08:43:57;;;;;;;8.43;4.05;;;;;;;19.59;100.00;100056.03;3609084;39;20034;-63
2021/08/06 08:46:27;;;;;;;5.22;3.65;;;;;;;19.58;100.00;100062.53;3608810;39;20051;-63
2021/08/06 08:48:56;;;;;;;5.50;3.60;;;;;;;19.59;100.00;100056.03;3609122;39;20042;-63
2021/08/06 08:51:25;;;;;;;8.43;3.85;;;;;;;19.78;100.00;100063.31;3608877;39;20067;-63
2021/08/06 08:53:52;;;;;;;5.32;3.15;;;;;;;19.59;100.00;100067.75;3609180;39;20054;-63
2021/08/06 08:56:19;;;;;;;6.72;3.33;;;;;;;19.55;100.00;100071.16;3607170;39;20306;-63
2021/08/06 08:58:45;;;;;;;6.72;3.30;;;;;;;19.75;100.00;100068.34;3608443;39;20019;-61
2021/08/06 09:01:12;;;;;;;6.03;3.83;;;;;;;20.14;100.00;100069.28;3609132;39;20035;-63
2021/08/06 09:03:40;;;;;;;4.97;3.05;;;;;;;20.04;100.00;100074.38;3609051;39;20055;-63
2021/08/06 09:06:08;;;;;;;6.40;3.10;;;;;;;20.15;100.00;100070.94;3608818;39;20055;-63
2021/08/06 09:08:36;;;;;;;6.07;2.97;;;;;;;20.63;100.00;100062.19;3609117;39;20039;-62
2021/08/06 09:11:24;;;;;;;6.10;3.30;;;;;;;19.85;100.00;100057.84;3608976;39;20067;-63
2021/08/06 09:13:50;;;;;;;7.93;3.40;;;;;;;19.56;100.00;100062.75;3608633;39;20273;-63
2021/08/06 09:18:44;;;;;;;3.63;2.85;;;;;;;20.39;100.00;100055.66;3638015;22;20032;-64
2021/08/06 09:21:21;;;;;;;4.05;2.92;;;;;;;20.93;100.00;100055.25;3608804;39;20036;-63
2021/08/06 09:23:49;;;;;;;5.85;2.50;;;;;;;20.75;100.00;100058.78;3604470;39;20028;-63
2021/08/06 09:26:42;;;;;;;6.67;2.73;;;;;;;20.44;100.00;100046.78;3607054;39;20038;-63
2021/08/06 09:29:11;;;;;;;5.82;2.67;;;;;;;20.89;100.00;100048.56;3608833;39;20046;-63
2021/08/06 09:31:39;;;;;;;5.13;2.50;;;;;;;21.00;100.00;100045.94;3608944;39;20038;-64
2021/08/06 09:34:24;;;;;;;5.03;2.83;;;;;;;21.50;100.00;100039.53;3608476;39;20031;-64
2021/08/06 09:37:10;;;;;;;4.07;2.28;;;;;;;20.97;100.00;100046.38;3608968;39;20043;-63
2021/08/06 09:39:40;;;;;;;3.80;2.30;;;;;;;20.85;100.00;100047.31;3608767;39;20032;-63
2021/08/06 09:42:16;;;;;;;5.38;2.33;;;;;;;21.29;100.00;100039.94;3608492;39;20043;-63
2021/08/06 09:44:43;;;;;;;4.18;2.47;;;;;;;21.81;100.00;100039.59;3608745;39;20035;-63
2021/08/06 09:47:17;;;;;;;5.30;2.60;;;;;;;21.44;100.00;100045.91;3609271;39;20282;-63
2021/08/06 09:49:45;;;;;;;17.17;3.63;;;;;;;21.44;100.00;100059.59;3608396;39;20031;-63
2021/08/06 09:52:12;;;;;;;11.02;3.22;;;;;;;20.77;100.00;100060.25;3608689;39;20024;-63
2021/08/06 09:54:38;;;;;;;20.20;4.32;;;;;;;20.81;100.00;100064.19;3608247;39;20036;-63
2021/08/06 09:57:10;;;;;;;7.18;2.63;;;;;;;20.52;100.00;100064.81;3608557;39;20370;-63
2021/08/06 09:59:37;;;;;;;10.82;2.53;;;;;;;20.47;100.00;100073.69;3608421;39;20391;-63
2021/08/06 10:02:15;;;;;;;6.63;2.67;;;;;;;20.40;100.00;100076.44;3607976;39;20038;-63
2021/08/06 10:04:43;;;;;;;6.57;2.58;;;;;;;20.23;100.00;100087.06;3608797;39;20034;-63
2021/08/06 10:07:10;;;;;;;10.18;2.70;;;;;;;20.03;100.00;100078.16;3608600;39;20024;-63
2021/08/06 10:09:37;;;;;;;3.95;3.00;;;;;;;20.13;100.00;100083.97;3608450;39;20042;-62
2021/08/06 10:12:05;;;;;;;5.57;2.67;;;;;;;20.51;100.00;100068.59;3608233;39;20043;-63
2021/08/06 10:14:34;;;;;;;4.13;2.40;;;;;;;20.57;100.00;100071.28;3608803;39;20051;-63
2021/08/06 10:17:01;;;;;;;6.78;2.78;;;;;;;20.42;100.00;100076.22;3608264;39;20043;-63
2021/08/06 10:19:28;;;;;;;6.95;2.90;;;;;;;20.49;100.00;100071.56;3608235;39;20051;-62
2021/08/06 10:21:56;;;;;;;3.50;2.38;;;;;;;20.64;100.00;100083.03;3608487;39;20032;-62
2021/08/06 10:24:23;;;;;;;5.85;2.75;;;;;;;21.00;100.00;100076.03;3602081;39;20296;-63
2021/08/06 10:26:50;;;;;;;5.78;2.60;;;;;;;20.95;100.00;100080.47;3636503;22;20054;-63
2021/08/06 10:29:20;;;;;;;4.88;2.80;;;;;;;20.34;100.00;100085.53;3607615;39;20032;-63
2021/08/06 10:32:10;;;;;;;24.52;4.65;;;;;;;20.19;100.00;100085.84;3608599;39;20030;-63
2021/08/06 10:35:08;;;;;;;16.00;5.32;;;;;;;20.16;100.00;100093.63;3608081;39;20055;-63
2021/08/06 10:38:05;;;;;;;32.92;6.15;;;;;;;20.54;100.00;100087.28;3608509;39;20360;-63
2021/08/06 10:41:04;;;;;;;8.77;4.00;;;;;;;20.59;100.00;100077.38;3566052;40;20152;-62
2021/08/06 10:43:36;;;;;;;4.55;3.08;;;;;;;20.50;100.00;100086.09;3608427;39;20043;-63
2021/08/06 10:48:39;;;;;;;6.47;3.22;;;;;;;19.99;100.00;100088.66;3629848;22;20302;-62
2021/08/06 10:51:27;;;;;;;5.88;3.10;;;;;;;19.96;100.00;100086.34;3608570;39;20043;-63
2021/08/06 10:54:13;;;;;;;;;;;;;;;19.89;100.00;100094.59;3603817;39;20075;-63
2021/08/06 10:56:40;;;;;;;7.03;3.40;;;;;;;19.70;100.00;100090.84;3608154;39;19932;-62
2021/08/06 10:59:12;;;;;;;10.82;4.40;;;;;;;19.56;100.00;100095.50;3608452;39;20063;-63
2021/08/06 11:01:40;;;;;;;8.23;4.05;;;;;;;19.74;100.00;100092.09;3608473;39;20418;-62
2021/08/06 11:06:37;;;;;;;;;;;;;;;20.39;100.00;100082.13;3610487;22;20043;-63
2021/08/06 11:09:05;;;;;;;8.20;4.45;;;;;;;20.92;100.00;100084.53;3608551;39;19947;-63
2021/08/06 11:11:46;;;;;;;5.38;3.63;;;;;;;21.60;100.00;100073.75;3608350;39;20124;-62
2021/08/06 11:14:27;;;;;;;4.35;3.88;;;;;;;21.20;100.00;100061.34;3624235;22;20051;-63
2021/08/06 11:17:03;;;;;;;6.15;3.78;;;;;;;21.62;100.00;100053.31;3595002;39;20076;-63
2021/08/06 11:19:31;;;;;;;4.40;3.30;;;;;;;21.82;100.00;100058.56;3598258;39;20297;-63
2021/08/06 11:22:01;;;;;;;4.70;3.40;;;;;;;21.97;100.00;100058.13;3598165;39;20133;-63
2021/08/06 11:24:27;;;;;;;5.90;3.30;;;;;;;21.68;100.00;100068.81;3591877;40;20060;-63
2021/08/06 11:26:54;;;;;;;6.88;3.50;;;;;;;21.94;100.00;100063.25;3598087;39;20367;-63
2021/08/06 11:29:21;;;;;;;11.93;4.50;;;;;;;22.68;100.00;100061.13;3597760;39;20314;-64
2021/08/06 11:31:59;;;;;;;19.58;4.47;;;;;;;22.51;100.00;100071.09;3597907;39;20068;-64
2021/08/06 11:34:25;;;;;;;23.73;5.40;;;;;;;22.08;100.00;100072.13;3597752;39;20306;-64
2021/08/06 11:36:57;;;;;;;10.60;3.90;;;;;;;21.95;100.00;100068.50;3597819;39;20406;-64
2021/08/06 11:39:25;;;;;;;6.53;3.53;;;;;;;21.49;100.00;100073.41;3598067;39;20048;-63
2021/08/06 11:41:53;;;;;;;6.75;3.55;;;;;;;21.73;100.00;100075.50;3598179;39;20031;-62